createdAt,value
2022-09-02T00:00:58.878Z,91.48
2022-09-02T00:01:59.010Z,91.72
2022-09-02T00:02:59.001Z,92.13
2022-09-02T00:03:58.879Z,92.33
2022-09-02T00:04:59.232Z,92.19
2022-09-02T00:05:58.853Z,92.09
2022-09-02T00:06:58.847Z,91.78
2022-09-02T00:07:58.822Z,91.17
2022-09-02T00:08:58.821Z,91.27
2022-09-02T00:09:59.228Z,91.27
2022-09-02T00:10:58.843Z,91.58
2022-09-02T00:11:58.758Z,91.68
2022-09-02T00:12:58.738Z,91.93
2022-09-02T00:13:58.724Z,92.03
2022-09-02T00:14:59.186Z,91.93
2022-09-02T00:16:10.311Z,92.03
2022-09-02T00:16:58.791Z,92.23
2022-09-02T00:17:59.062Z,92.79
2022-09-02T00:18:58.666Z,92.99
2022-09-02T00:19:59.017Z,92.89
2022-09-02T00:20:58.654Z,92.89
2022-09-02T00:21:58.616Z,92.89
2022-09-02T00:22:58.634Z,93.19
2022-09-02T00:23:58.614Z,93.19
2022-09-02T00:24:58.925Z,92.99
2022-09-02T00:25:58.574Z,93.03
2022-09-02T00:26:58.593Z,93.24
2022-09-02T00:27:58.553Z,93.44
2022-09-02T00:28:58.567Z,93.33
2022-09-02T00:29:58.972Z,93.24
2022-09-02T00:30:58.534Z,93.69
2022-09-02T00:31:58.606Z,93.79
2022-09-02T00:32:58.502Z,93.89
2022-09-02T00:33:58.523Z,93.89
2022-09-02T00:34:58.953Z,94.40
2022-09-02T00:35:58.461Z,94.71
2022-09-02T00:36:58.453Z,95.12
2022-09-02T00:37:58.463Z,94.91
2022-09-02T00:38:58.463Z,94.71
2022-09-02T00:39:58.782Z,94.71
2022-09-02T00:40:58.402Z,94.91
2022-09-02T00:41:58.372Z,95.06
2022-09-02T00:42:58.374Z,94.95
2022-09-02T00:43:58.339Z,95.26
2022-09-02T00:44:58.381Z,95.67
2022-09-02T00:45:58.789Z,95.47
2022-09-02T00:46:58.329Z,95.87
2022-09-02T00:47:58.318Z,95.57
2022-09-02T00:48:58.313Z,95.36
2022-09-02T00:49:58.310Z,95.26
2022-09-02T00:50:58.600Z,95.67
2022-09-02T00:51:58.244Z,95.57
2022-09-02T00:52:58.267Z,95.47
2022-09-02T00:53:58.272Z,95.16
2022-09-02T00:54:58.217Z,95.26
2022-09-02T00:55:58.644Z,95.47
2022-09-02T00:56:58.189Z,95.36
2022-09-02T00:57:58.199Z,95.36
2022-09-02T00:58:58.206Z,95.36
2022-09-02T00:59:58.151Z,95.06
2022-09-02T01:00:58.689Z,95.06
2022-09-02T01:01:58.281Z,94.75
2022-09-02T01:02:58.127Z,94.65
2022-09-02T01:03:58.128Z,94.45
2022-09-02T01:04:58.107Z,94.34
2022-09-02T01:05:58.453Z,94.45
2022-09-02T01:06:58.047Z,94.34
2022-09-02T01:07:58.049Z,94.20
2022-09-02T01:08:58.089Z,93.99
2022-09-02T01:09:58.005Z,93.89
2022-09-02T01:10:58.385Z,93.89
2022-09-02T01:11:57.984Z,93.69
2022-09-02T01:12:57.985Z,93.48
2022-09-02T01:13:58.116Z,93.24
2022-09-02T01:14:58.005Z,92.52
2022-09-02T01:15:58.377Z,91.56
2022-09-02T01:16:57.955Z,90.95
2022-09-02T01:17:57.933Z,90.40
2022-09-02T01:18:57.922Z,89.99
2022-09-02T01:19:57.904Z,89.69
2022-09-02T01:20:58.304Z,89.48
2022-09-02T01:21:57.889Z,89.48
2022-09-02T01:22:57.873Z,89.59
2022-09-02T01:23:57.883Z,89.18
2022-09-02T01:24:57.833Z,89.38
2022-09-02T01:25:58.284Z,89.38
2022-09-02T01:26:57.821Z,89.28
2022-09-02T01:27:57.810Z,89.07
2022-09-02T01:28:57.812Z,88.98
2022-09-02T01:29:57.784Z,89.07
2022-09-02T01:30:58.301Z,89.18
2022-09-02T01:31:57.828Z,88.77
2022-09-02T01:32:57.750Z,88.36
2022-09-02T01:33:57.740Z,88.26
2022-09-02T01:34:57.728Z,88.26
2022-09-02T01:35:58.061Z,88.26
2022-09-02T01:36:57.700Z,88.26
2022-09-02T01:37:57.669Z,88.16
2022-09-02T01:38:57.650Z,88.46
2022-09-02T01:39:57.641Z,88.77
2022-09-02T01:40:58.081Z,88.57
2022-09-02T01:41:57.727Z,88.57
2022-09-02T01:42:57.666Z,88.46
2022-09-02T01:43:57.630Z,88.46
2022-09-02T01:44:57.608Z,88.57
2022-09-02T01:45:57.999Z,88.46
2022-09-02T01:46:57.606Z,88.61
2022-09-02T01:47:57.546Z,88.51
2022-09-02T01:48:57.526Z,88.46
2022-09-02T01:49:57.517Z,88.31
2022-09-02T01:50:58.080Z,88.31
2022-09-02T01:51:57.538Z,88.51
2022-09-02T01:52:57.537Z,88.51
2022-09-02T01:53:57.477Z,88.51
2022-09-02T01:54:57.493Z,88.92
2022-09-02T01:55:57.897Z,89.73
2022-09-02T01:56:57.456Z,89.67
2022-09-02T01:57:57.423Z,89.87
2022-09-02T01:58:57.418Z,90.28
2022-09-02T01:59:57.417Z,90.69
2022-09-02T02:00:57.910Z,91.44
2022-09-02T02:01:57.429Z,92.16
2022-09-02T02:02:57.353Z,92.36
2022-09-02T02:03:57.352Z,92.46
2022-09-02T02:04:57.345Z,92.87
2022-09-02T02:05:57.326Z,92.91
2022-09-02T02:06:57.684Z,92.50
2022-09-02T02:07:57.297Z,92.71
2022-09-02T02:08:57.274Z,92.86
2022-09-02T02:09:57.293Z,93.16
2022-09-02T02:10:57.263Z,93.37
2022-09-02T02:11:57.762Z,93.47
2022-09-02T02:12:57.246Z,93.62
2022-09-02T02:13:57.222Z,94.12
2022-09-02T02:14:57.212Z,94.53
2022-09-02T02:15:57.560Z,94.84
2022-09-02T02:16:57.912Z,94.89
2022-09-02T02:17:57.171Z,94.78
2022-09-02T02:18:57.172Z,94.78
2022-09-02T02:19:57.170Z,94.89
2022-09-02T02:20:57.122Z,95.09
2022-09-02T02:21:57.539Z,95.19
2022-09-02T02:22:57.111Z,95.44
2022-09-02T02:23:57.141Z,95.85
2022-09-02T02:24:57.083Z,95.95
2022-09-02T02:25:57.088Z,95.95
2022-09-02T02:26:57.428Z,96.20
2022-09-02T02:27:57.069Z,96.61
2022-09-02T02:28:57.059Z,96.71
2022-09-02T02:29:57.047Z,96.81
2022-09-02T02:30:57.054Z,96.92
2022-09-02T02:31:57.439Z,96.92
2022-09-02T02:32:56.980Z,96.92
2022-09-02T02:33:56.985Z,97.12
2022-09-02T02:34:56.979Z,97.67
2022-09-02T02:35:56.935Z,98.35
2022-09-02T02:36:57.377Z,98.55
2022-09-02T02:37:56.938Z,98.55
2022-09-02T02:38:56.884Z,98.45
2022-09-02T02:39:56.888Z,97.99
2022-09-02T02:40:56.887Z,97.38
2022-09-02T02:41:57.269Z,96.83
2022-09-02T02:42:56.856Z,96.51
2022-09-02T02:43:56.848Z,95.76
2022-09-02T02:44:56.805Z,95.04
2022-09-02T02:45:56.804Z,94.38
2022-09-02T02:46:57.360Z,94.08
2022-09-02T02:47:56.795Z,93.88
2022-09-02T02:48:56.766Z,93.77
2022-09-02T02:49:56.795Z,93.57
2022-09-02T02:50:56.764Z,93.57
2022-09-02T02:51:57.156Z,93.57
2022-09-02T02:52:56.754Z,93.57
2022-09-02T02:53:58.905Z,93.57
2022-09-02T02:54:56.692Z,93.47
2022-09-02T02:55:56.707Z,93.16
2022-09-02T02:56:57.047Z,92.61
2022-09-02T02:57:56.685Z,92.20
2022-09-02T02:58:56.633Z,91.69
2022-09-02T02:59:56.640Z,91.44
2022-09-02T03:00:56.631Z,91.14
2022-09-02T03:01:57.116Z,90.53
2022-09-02T03:02:56.689Z,90.12
2022-09-02T03:03:56.602Z,89.47
2022-09-02T03:04:56.632Z,89.26
2022-09-02T03:05:56.578Z,89.06
2022-09-02T03:06:56.961Z,88.96
2022-09-02T03:07:56.531Z,88.85
2022-09-02T03:08:56.534Z,88.75
2022-09-02T03:09:56.562Z,88.65
2022-09-02T03:10:56.508Z,88.51
2022-09-02T03:11:56.821Z,88.55
2022-09-02T03:12:56.487Z,88.55
2022-09-02T03:13:56.490Z,88.65
2022-09-02T03:14:56.470Z,88.96
2022-09-02T03:15:56.539Z,89.26
2022-09-02T03:16:56.873Z,89.40
2022-09-02T03:17:56.428Z,89.51
2022-09-02T03:18:56.429Z,89.71
2022-09-02T03:19:56.384Z,89.81
2022-09-02T03:20:56.376Z,89.92
2022-09-02T03:21:56.777Z,90.26
2022-09-02T03:22:56.345Z,90.57
2022-09-02T03:23:56.441Z,90.77
2022-09-02T03:24:56.323Z,90.77
2022-09-02T03:25:56.297Z,91.22
2022-09-02T03:26:56.615Z,91.53
2022-09-02T03:27:56.266Z,91.63
2022-09-02T03:28:56.256Z,91.63
2022-09-02T03:29:56.247Z,91.53
2022-09-02T03:30:56.336Z,91.33
2022-09-02T03:31:56.657Z,91.08
2022-09-02T03:32:58.405Z,90.88
2022-09-02T03:33:56.232Z,90.67
2022-09-02T03:34:56.154Z,90.57
2022-09-02T03:35:56.175Z,90.36
2022-09-02T03:36:56.536Z,90.16
2022-09-02T03:37:56.143Z,90.06
2022-09-02T03:38:56.151Z,89.81
2022-09-02T03:39:56.811Z,89.71
2022-09-02T03:40:56.090Z,89.71
2022-09-02T03:41:56.565Z,89.61
2022-09-02T03:42:59.928Z,89.51
2022-09-02T03:43:56.125Z,89.51
2022-09-02T03:44:56.441Z,89.51
2022-09-02T03:45:56.069Z,89.51
2022-09-02T03:46:56.464Z,89.40
2022-09-02T03:47:56.040Z,89.20
2022-09-02T03:48:56.023Z,89.10
2022-09-02T03:49:55.982Z,89.20
2022-09-02T03:50:55.981Z,89.40
2022-09-02T03:51:56.368Z,89.61
2022-09-02T03:52:56.079Z,89.71
2022-09-02T03:53:55.977Z,89.40
2022-09-02T03:54:55.940Z,89.10
2022-09-02T03:55:55.914Z,89.00
2022-09-02T03:56:55.901Z,89.20
2022-09-02T03:57:56.339Z,89.40
2022-09-02T03:58:55.887Z,89.75
2022-09-02T03:59:55.877Z,90.16
2022-09-02T04:00:55.927Z,90.57
2022-09-02T04:01:56.292Z,90.67
2022-09-02T04:02:55.871Z,90.57
2022-09-02T04:03:55.826Z,90.67
2022-09-02T04:04:55.779Z,90.81
2022-09-02T04:05:55.839Z,91.12
2022-09-02T04:06:55.756Z,91.33
2022-09-02T04:07:56.199Z,91.43
2022-09-02T04:08:55.790Z,91.33
2022-09-02T04:09:55.768Z,91.22
2022-09-02T04:10:55.748Z,91.08
2022-09-02T04:11:56.060Z,90.88
2022-09-02T04:12:55.741Z,90.77
2022-09-02T04:13:55.716Z,90.88
2022-09-02T04:14:57.644Z,90.98
2022-09-02T04:15:58.618Z,91.08
2022-09-02T04:16:57.067Z,90.57
2022-09-02T04:17:55.666Z,90.57
2022-09-02T04:18:55.624Z,90.57
2022-09-02T04:19:55.657Z,90.57
2022-09-02T04:20:55.646Z,90.77
2022-09-02T04:21:56.042Z,90.67
2022-09-02T04:22:55.565Z,90.77
2022-09-02T04:23:55.663Z,91.12
2022-09-02T04:24:55.576Z,91.08
2022-09-02T04:25:55.555Z,90.88
2022-09-02T04:26:55.542Z,90.77
2022-09-02T04:27:55.814Z,90.26
2022-09-02T04:28:55.744Z,90.01
2022-09-02T04:29:55.532Z,89.81
2022-09-02T04:30:55.567Z,89.61
2022-09-02T04:31:55.892Z,89.51
2022-09-02T04:32:55.443Z,89.40
2022-09-02T04:33:55.442Z,89.30
2022-09-02T04:34:55.420Z,89.10
2022-09-02T04:35:55.482Z,88.85
2022-09-02T04:36:55.403Z,88.96
2022-09-02T04:37:55.832Z,88.85
2022-09-02T04:38:55.371Z,88.75
2022-09-02T04:39:55.370Z,88.65
2022-09-02T04:40:55.381Z,88.65
2022-09-02T04:41:55.741Z,88.90
2022-09-02T04:42:55.503Z,88.85
2022-09-02T04:43:55.378Z,88.75
2022-09-02T04:44:55.319Z,88.65
2022-09-02T04:45:55.339Z,88.65
2022-09-02T04:46:55.570Z,88.75
2022-09-02T04:47:55.270Z,88.75
2022-09-02T04:48:55.250Z,88.75
2022-09-02T04:49:55.221Z,88.65
2022-09-02T04:50:55.260Z,88.65
2022-09-02T04:51:55.607Z,88.55
2022-09-02T04:52:55.175Z,88.65
2022-09-02T04:53:55.168Z,88.65
2022-09-02T04:54:55.167Z,88.90
2022-09-02T04:55:58.067Z,89.00
2022-09-02T04:56:55.597Z,89.10
2022-09-02T04:57:55.125Z,89.10
2022-09-02T05:00:12.885Z,89.51
2022-09-02T05:01:12.863Z,89.75
2022-09-02T05:02:13.914Z,90.06
2022-09-02T05:03:12.846Z,90.57
2022-09-02T05:04:12.800Z,90.67
2022-09-02T05:05:12.696Z,90.92
2022-09-02T05:06:12.674Z,91.02
2022-09-02T05:07:13.028Z,91.43
2022-09-02T05:08:12.635Z,91.53
2022-09-02T05:09:12.666Z,91.83
2022-09-02T05:10:12.627Z,92.29
2022-09-02T05:11:12.877Z,92.39
2022-09-02T05:12:13.100Z,92.39
2022-09-02T05:13:12.606Z,92.29
2022-09-02T05:14:12.620Z,92.14
2022-09-02T05:15:12.604Z,91.94
2022-09-02T05:16:12.976Z,91.94
2022-09-02T05:17:12.997Z,91.83
2022-09-02T05:18:13.049Z,92.04
2022-09-02T05:19:12.779Z,92.14
2022-09-02T05:20:12.505Z,92.45
2022-09-02T05:21:12.522Z,92.69
2022-09-02T05:22:12.882Z,92.90
2022-09-02T05:23:12.482Z,93.00
2022-09-02T05:24:12.483Z,93.10
2022-09-02T05:25:12.444Z,92.96
2022-09-02T05:26:12.433Z,92.86
2022-09-02T05:27:12.624Z,92.96
2022-09-02T05:28:12.367Z,92.96
2022-09-02T05:29:12.361Z,93.06
2022-09-02T05:30:12.391Z,92.86
2022-09-02T05:31:12.368Z,92.76
2022-09-02T05:32:12.654Z,92.61
2022-09-02T05:33:13.529Z,92.81
2022-09-02T05:34:12.291Z,92.81
2022-09-02T05:35:12.291Z,92.81
2022-09-02T05:36:12.300Z,92.81
2022-09-02T05:37:12.720Z,93.12
2022-09-02T05:38:12.282Z,92.91
2022-09-02T05:39:12.270Z,92.77
2022-09-02T05:40:12.331Z,92.97
2022-09-02T05:41:12.300Z,92.16
2022-09-02T05:42:12.530Z,90.94
2022-09-02T05:43:12.237Z,90.89
2022-09-02T05:44:12.179Z,90.38
2022-09-02T05:45:12.155Z,90.18
2022-09-02T05:46:12.227Z,90.14
2022-09-02T05:47:12.133Z,90.14
2022-09-02T05:48:12.546Z,90.14
2022-09-02T05:49:12.109Z,90.34
2022-09-02T05:50:12.121Z,91.01
2022-09-02T05:51:12.099Z,91.22
2022-09-02T05:52:12.089Z,90.70
2022-09-02T05:53:14.795Z,90.20
2022-09-02T05:54:12.027Z,89.38
2022-09-02T05:55:12.038Z,88.57
2022-09-02T05:56:12.028Z,88.02
2022-09-02T05:57:12.038Z,88.32
2022-09-02T05:58:12.457Z,88.22
2022-09-02T05:59:11.968Z,88.02
2022-09-02T06:00:16.944Z,87.92
2022-09-02T06:01:13.000Z,87.26
2022-09-02T06:02:12.044Z,87.06
2022-09-02T06:03:12.467Z,86.65
2022-09-02T06:04:11.954Z,86.92
2022-09-02T06:05:12.056Z,86.10
2022-09-02T06:06:22.424Z,85.90
2022-09-02T06:07:13.594Z,85.29
2022-09-02T06:08:12.482Z,85.35
2022-09-02T06:09:11.968Z,85.15
2022-09-02T06:10:12.005Z,84.84
2022-09-02T06:11:12.125Z,85.05
2022-09-02T06:12:11.815Z,84.95
2022-09-02T06:13:12.393Z,84.80
2022-09-02T06:14:11.996Z,84.50
2022-09-02T06:15:11.879Z,84.50
2022-09-02T06:16:12.024Z,84.70
2022-09-02T06:17:11.887Z,84.66
2022-09-02T06:18:14.400Z,84.56
2022-09-02T06:19:13.568Z,83.34
2022-09-02T06:20:12.019Z,83.40
2022-09-02T06:21:11.726Z,81.67
2022-09-02T06:22:11.706Z,78.31
2022-09-02T06:23:12.120Z,76.25
2022-09-02T06:24:11.746Z,73.45
2022-09-02T06:25:11.700Z,72.27
2022-09-02T06:26:12.327Z,70.39
2022-09-02T06:27:11.876Z,69.35
2022-09-02T06:28:12.233Z,68.59
2022-09-02T06:29:11.784Z,67.24
2022-09-02T06:30:11.764Z,65.80
2022-09-02T06:31:11.630Z,64.50
2022-09-02T06:32:11.588Z,65.30
2022-09-02T06:33:12.115Z,65.67
2022-09-02T06:34:18.665Z,64.21
2022-09-02T06:35:11.748Z,63.37
2022-09-02T06:36:11.659Z,62.64
2022-09-02T06:37:11.720Z,61.64
2022-09-02T06:38:12.120Z,61.34
2022-09-02T06:39:11.658Z,61.87
2022-09-02T06:40:11.705Z,63.28
2022-09-02T06:42:29.732Z,61.94
2022-09-02T06:43:29.394Z,61.77
2022-09-02T06:44:30.151Z,61.84
2022-09-02T06:45:29.168Z,61.51
2022-09-02T06:46:29.343Z,61.61
2022-09-02T06:47:29.112Z,61.08
2022-09-02T06:48:29.466Z,60.45
2022-09-02T06:49:29.106Z,60.58
2022-09-02T06:50:29.061Z,60.08
2022-09-02T06:51:29.013Z,60.15
2022-09-02T06:53:49.973Z,58.97
2022-09-02T06:54:48.983Z,57.74
2022-09-02T06:55:49.151Z,57.93
2022-09-02T06:56:49.651Z,57.39
2022-09-02T06:57:49.134Z,59.42
2022-09-02T06:58:49.434Z,59.12
2022-09-02T06:59:48.957Z,58.86
2022-09-02T07:00:48.851Z,59.06
2022-09-02T07:02:00.503Z,58.67
2022-09-02T07:04:18.624Z,57.91
2022-09-02T07:05:17.799Z,57.68
2022-09-02T07:06:17.793Z,57.37
2022-09-02T07:07:17.810Z,58.06
2022-09-02T07:08:26.728Z,58.49
2022-09-02T07:09:17.855Z,59.06
2022-09-02T07:10:17.869Z,58.24
2022-09-02T07:11:17.822Z,58.31
2022-09-02T07:12:17.797Z,57.39
2022-09-02T07:13:17.797Z,56.48
2022-09-02T07:14:17.905Z,56.54
2022-09-02T07:15:18.025Z,57.76
2022-09-02T07:16:22.755Z,58.26
2022-09-02T07:17:20.019Z,58.06
2022-09-02T07:19:35.561Z,57.87
2022-09-02T07:20:35.375Z,58.06
2022-09-02T07:21:34.915Z,57.81
2022-09-02T07:22:34.846Z,56.98
2022-09-02T07:26:16.970Z,56.88
2022-09-02T07:27:16.517Z,55.96
2022-09-02T07:28:16.485Z,56.46
2022-09-02T07:30:34.694Z,56.51
2022-09-02T07:31:34.198Z,56.18
2022-09-02T07:32:34.455Z,55.49
2022-09-02T07:33:33.997Z,56.36
2022-09-02T07:34:33.982Z,55.43
2022-09-02T07:35:33.987Z,54.96
2022-09-02T07:36:33.977Z,56.06
2022-09-02T07:37:33.901Z,55.76
2022-09-02T07:38:34.257Z,54.76
2022-09-02T07:39:33.937Z,55.66
2022-09-02T07:40:33.855Z,55.32
2022-09-02T07:41:33.865Z,56.27
2022-09-02T07:42:34.292Z,58.12
2022-09-02T07:43:33.771Z,59.05
2022-09-02T07:44:34.227Z,59.55
2022-09-02T07:45:33.924Z,59.25
2022-09-02T07:46:33.844Z,59.28
2022-09-02T07:47:33.808Z,58.98
2022-09-02T07:48:33.707Z,59.02
2022-09-02T07:50:34.652Z,58.09
2022-09-02T07:51:33.788Z,58.32
2022-09-02T07:52:33.757Z,57.92
2022-09-02T07:53:33.727Z,58.39
2022-09-02T07:54:34.222Z,57.37
2022-09-02T07:55:33.760Z,57.26
2022-09-02T07:56:34.140Z,56.54
2022-09-02T07:57:33.714Z,56.54
2022-09-02T07:58:33.650Z,56.54
2022-09-02T08:02:02.365Z,57.07
2022-09-02T08:03:02.097Z,57.50
2022-09-02T08:04:05.573Z,57.79
2022-09-02T08:05:01.977Z,57.14
2022-09-02T08:06:01.918Z,56.44
2022-09-02T08:07:02.005Z,56.44
2022-09-02T08:08:01.886Z,56.09
2022-09-02T08:09:01.878Z,55.26
2022-09-02T08:10:02.257Z,54.39
2022-09-02T08:12:01.856Z,55.81
2022-09-02T08:13:01.915Z,55.58
2022-09-02T08:14:01.846Z,54.57
2022-09-02T08:15:02.206Z,54.19
2022-09-02T08:16:01.989Z,55.24
2022-09-02T08:17:01.904Z,57.17
2022-09-02T08:18:01.775Z,57.26
2022-09-02T08:19:01.808Z,56.24
2022-09-02T08:20:01.819Z,56.54
2022-09-02T08:21:01.779Z,56.04
2022-09-02T08:22:01.719Z,56.44
2022-09-02T08:23:11.105Z,55.87
2022-09-02T08:24:02.736Z,56.79
2022-09-02T08:25:02.155Z,57.79
2022-09-02T08:26:01.743Z,58.28
2022-09-02T08:27:01.642Z,59.23
2022-09-02T08:28:01.696Z,60.89
2022-09-02T08:29:01.596Z,62.33
2022-09-02T08:30:01.643Z,62.43
2022-09-02T08:31:01.576Z,62.46
2022-09-02T08:32:01.613Z,63.73
2022-09-02T08:33:01.556Z,63.60
2022-09-02T08:34:01.548Z,63.50
2022-09-02T08:35:01.974Z,61.57
2022-09-02T08:36:01.506Z,61.30
2022-09-02T08:37:01.496Z,62.10
2022-09-02T08:38:02.318Z,61.63
2022-09-02T08:39:01.485Z,62.03
2022-09-02T08:40:01.876Z,61.83
2022-09-02T08:41:01.486Z,62.83
2022-09-02T08:43:01.414Z,61.63
2022-09-02T08:44:01.457Z,61.80
2022-09-02T08:45:01.464Z,61.30
2022-09-02T08:46:01.838Z,61.77
2022-09-02T08:47:01.545Z,60.80
2022-09-02T08:48:01.422Z,60.89
2022-09-02T08:49:01.493Z,60.60
2022-09-02T08:50:01.387Z,60.77
2022-09-02T08:51:01.405Z,60.97
2022-09-02T08:52:01.357Z,61.24
2022-09-02T08:53:01.341Z,60.94
2022-09-02T08:54:01.384Z,61.04
2022-09-02T08:55:01.339Z,60.61
2022-09-02T08:56:01.449Z,58.73
2022-09-02T08:57:01.485Z,60.03
2022-09-02T08:58:01.654Z,59.56
2022-09-02T08:59:01.744Z,60.03
2022-09-02T09:00:01.360Z,60.53
2022-09-02T09:01:01.567Z,58.43
2022-09-02T09:02:01.407Z,58.13
2022-09-02T09:03:01.236Z,58.33
2022-09-02T09:04:01.423Z,58.94
2022-09-02T09:05:01.374Z,60.03
2022-09-02T09:06:01.166Z,59.00
2022-09-02T09:07:01.253Z,58.81
2022-09-02T09:08:01.262Z,58.00
2022-09-02T09:09:01.254Z,58.18
2022-09-02T09:10:01.102Z,59.08
2022-09-02T09:11:01.599Z,58.78
2022-09-02T09:12:01.149Z,57.57
2022-09-02T09:13:01.164Z,57.48
2022-09-02T09:14:01.025Z,57.75
2022-09-02T09:15:01.081Z,56.85
2022-09-02T09:16:01.413Z,56.74
2022-09-02T09:17:01.276Z,56.07
2022-09-02T09:18:01.495Z,56.98
2022-09-02T09:19:02.959Z,57.78
2022-09-02T09:20:01.309Z,56.87
2022-09-02T09:21:16.673Z,56.77
2022-09-02T09:22:01.420Z,56.37
2022-09-02T09:23:01.304Z,55.47
2022-09-02T09:25:21.699Z,57.07
2022-09-02T09:27:45.587Z,55.55
2022-09-02T09:30:01.250Z,52.72
2022-09-02T09:31:01.773Z,52.42
2022-09-02T09:33:33.269Z,51.82
2022-09-02T09:38:15.948Z,53.34
2022-09-02T09:39:15.207Z,53.02
2022-09-02T09:40:15.235Z,52.64
2022-09-02T09:41:24.477Z,52.42
2022-09-02T09:42:15.495Z,51.44
2022-09-02T09:43:16.045Z,52.12
2022-09-02T09:44:15.255Z,51.42
2022-09-02T09:45:15.075Z,51.42
2022-09-02T09:46:23.258Z,51.42
2022-09-02T09:47:18.002Z,52.69
2022-09-02T09:48:14.905Z,50.20
2022-09-02T09:49:14.776Z,50.52
2022-09-02T09:50:14.826Z,51.82
2022-09-02T09:51:15.080Z,50.70
2022-09-02T09:52:14.760Z,50.42
2022-09-02T09:53:14.699Z,50.72
2022-09-02T09:54:14.668Z,52.09
2022-09-02T09:55:14.672Z,51.50
2022-09-02T09:56:14.681Z,50.49
2022-09-02T09:57:14.689Z,51.20
2022-09-02T09:58:15.176Z,51.17
2022-09-02T09:59:14.731Z,51.77
2022-09-02T10:00:14.647Z,50.27
2022-09-02T10:01:15.230Z,51.47
2022-09-02T10:02:14.693Z,51.27
2022-09-02T10:03:14.618Z,50.54
2022-09-02T10:04:39.398Z,49.82
2022-09-02T10:05:15.538Z,49.12
2022-09-02T10:06:14.918Z,48.85
2022-09-02T10:07:14.508Z,49.52
2022-09-02T10:08:15.398Z,49.22
2022-09-02T10:09:24.548Z,50.45
2022-09-02T10:10:14.966Z,49.35
2022-09-02T10:11:15.415Z,50.22
2022-09-02T10:13:32.807Z,49.52
2022-09-02T10:16:42.925Z,48.94
2022-09-02T10:17:42.411Z,49.15
2022-09-02T10:18:42.343Z,48.45
2022-09-02T10:19:42.325Z,49.85
2022-09-02T10:20:48.617Z,49.05
2022-09-02T10:21:45.190Z,49.05
2022-09-02T10:22:58.778Z,49.25
2022-09-02T10:23:43.275Z,49.82
2022-09-02T10:24:42.264Z,49.80
2022-09-02T10:25:42.254Z,49.50
2022-09-02T10:26:42.254Z,48.80
2022-09-02T10:27:42.565Z,48.10
2022-09-02T10:28:42.228Z,48.50
2022-09-02T10:29:42.204Z,47.13
2022-09-02T10:30:42.206Z,48.52
2022-09-02T10:31:42.614Z,47.90
2022-09-02T10:32:42.182Z,47.83
2022-09-02T10:33:42.146Z,47.42
2022-09-02T10:34:42.201Z,48.02
2022-09-02T10:35:42.132Z,49.02
2022-09-02T10:36:42.108Z,48.30
2022-09-02T10:37:42.491Z,48.30
2022-09-02T10:38:42.094Z,47.83
2022-09-02T10:39:42.071Z,47.53
2022-09-02T10:40:42.109Z,48.63
2022-09-02T10:42:42.070Z,48.45
2022-09-02T10:43:42.013Z,48.14
2022-09-02T10:44:42.062Z,49.22
2022-09-02T10:45:42.003Z,48.43
2022-09-02T10:46:42.473Z,48.43
2022-09-02T10:47:42.019Z,47.95
2022-09-02T10:48:41.960Z,48.93
2022-09-02T10:49:42.022Z,48.93
2022-09-02T10:50:43.759Z,47.83
2022-09-02T10:51:42.242Z,49.42
2022-09-02T10:52:41.912Z,48.82
2022-09-02T10:53:41.911Z,48.52
2022-09-02T10:54:41.943Z,49.52
2022-09-02T10:55:41.918Z,49.02
2022-09-02T10:56:41.852Z,48.82
2022-09-02T10:57:42.223Z,48.52
2022-09-02T10:58:41.832Z,48.72
2022-09-02T10:59:41.822Z,49.02
2022-09-02T11:00:41.841Z,48.93
2022-09-02T11:01:43.221Z,49.10
2022-09-02T11:02:41.789Z,48.32
2022-09-02T11:03:42.732Z,48.82
2022-09-02T11:04:41.768Z,49.00
2022-09-02T11:05:41.742Z,48.50
2022-09-02T11:07:01.334Z,49.60
2022-09-02T11:07:43.185Z,49.50
2022-09-02T11:08:41.704Z,48.28
2022-09-02T11:09:41.689Z,49.05
2022-09-02T11:10:41.684Z,49.95
2022-09-02T11:11:41.700Z,49.13
2022-09-02T11:12:41.669Z,48.46
2022-09-02T11:13:41.632Z,48.65
2022-09-02T11:14:41.623Z,49.35
2022-09-02T11:15:41.636Z,49.75
2022-09-02T11:16:42.052Z,50.82
2022-09-02T11:17:41.580Z,49.10
2022-09-02T11:18:41.559Z,48.21
2022-09-02T11:19:41.551Z,47.71
2022-09-02T11:20:41.546Z,48.01
2022-09-02T11:21:41.890Z,48.73
2022-09-02T11:22:41.516Z,48.46
2022-09-02T11:23:41.506Z,50.65
2022-09-02T11:24:45.847Z,49.05
2022-09-02T11:25:42.483Z,48.93
2022-09-02T11:26:41.461Z,49.33
2022-09-02T11:27:42.838Z,50.02
2022-09-02T11:28:41.460Z,50.13
2022-09-02T11:29:41.434Z,49.63
2022-09-02T11:30:41.468Z,49.03
2022-09-02T11:31:41.848Z,49.15
2022-09-02T11:32:41.395Z,49.05
2022-09-02T11:33:41.382Z,49.95
2022-09-02T11:34:41.425Z,50.02
2022-09-02T11:35:41.351Z,49.13
2022-09-02T11:36:41.347Z,49.13
2022-09-02T11:37:41.364Z,47.93
2022-09-02T11:38:41.310Z,49.33
2022-09-02T11:39:53.986Z,49.21
2022-09-02T11:40:42.402Z,48.80
2022-09-02T11:41:41.900Z,48.91
2022-09-02T11:42:41.262Z,49.58
2022-09-02T11:43:41.240Z,49.08
2022-09-02T11:44:41.268Z,49.48
2022-09-02T11:45:42.301Z,48.86
2022-09-02T11:46:41.568Z,47.79
2022-09-02T11:47:41.190Z,47.79
2022-09-02T11:48:41.197Z,48.58
2022-09-02T11:49:41.173Z,49.46
2022-09-02T11:50:41.172Z,48.16
2022-09-02T11:51:41.639Z,47.37
2022-09-02T11:52:41.143Z,47.99
2022-09-02T11:53:41.107Z,47.19
2022-09-02T11:54:41.137Z,47.59
2022-09-02T11:55:41.091Z,48.79
2022-09-02T11:56:41.071Z,49.58
2022-09-02T11:57:41.111Z,49.68
2022-09-02T11:58:41.068Z,47.86
2022-09-02T11:59:41.085Z,47.96
2022-09-02T12:00:41.022Z,48.46
2022-09-02T12:01:44.058Z,49.66
2022-09-02T12:02:41.006Z,49.55
2022-09-02T12:03:58.698Z,48.96
2022-09-02T12:04:59.904Z,48.86
2022-09-02T12:05:42.027Z,49.18
2022-09-02T12:06:40.993Z,50.27
2022-09-02T12:07:41.330Z,47.29
2022-09-02T12:08:40.923Z,47.61
2022-09-02T12:09:40.918Z,48.08
2022-09-02T12:10:40.913Z,48.71
2022-09-02T12:11:41.374Z,50.10
2022-09-02T12:12:40.862Z,49.28
2022-09-02T12:13:40.904Z,49.18
2022-09-02T12:14:40.834Z,48.98
2022-09-02T12:15:40.822Z,47.27
2022-09-02T12:16:41.192Z,48.36
2022-09-02T12:17:40.808Z,47.69
2022-09-02T12:18:40.780Z,47.99
2022-09-02T12:19:40.770Z,49.08
2022-09-02T12:20:40.741Z,48.71
2022-09-02T12:21:41.110Z,48.61
2022-09-02T12:22:40.737Z,49.21
2022-09-02T12:23:40.709Z,49.38
2022-09-02T12:24:40.692Z,49.38
2022-09-02T12:25:40.691Z,48.49
2022-09-02T12:26:40.696Z,48.08
2022-09-02T12:27:40.903Z,47.99
2022-09-02T12:28:40.674Z,48.79
2022-09-02T12:29:40.754Z,48.58
2022-09-02T12:30:40.698Z,48.88
2022-09-02T12:31:41.029Z,49.16
2022-09-02T12:32:40.592Z,48.76
2022-09-02T12:33:40.603Z,48.44
2022-09-02T12:34:40.584Z,47.94
2022-09-02T12:35:40.748Z,47.14
2022-09-02T12:36:40.532Z,47.44
2022-09-02T12:37:40.560Z,47.27
2022-09-02T12:38:40.532Z,47.37
2022-09-02T12:39:40.537Z,47.77
2022-09-02T12:40:40.557Z,47.25
2022-09-02T12:41:40.501Z,47.74
2022-09-02T12:42:40.492Z,47.25
2022-09-02T12:43:40.466Z,47.25
2022-09-02T12:44:40.450Z,46.83
2022-09-02T12:45:40.480Z,46.62
2022-09-02T12:46:40.521Z,46.83
2022-09-02T12:47:40.467Z,47.14
2022-09-02T12:48:40.482Z,47.34
2022-09-02T12:49:40.392Z,48.22
2022-09-02T12:50:40.360Z,47.13
2022-09-02T12:51:40.821Z,48.69
2022-09-02T12:52:40.340Z,47.00
2022-09-02T12:53:40.312Z,46.48
2022-09-02T12:54:40.341Z,45.59
2022-09-02T12:55:40.292Z,45.96
2022-09-02T12:56:40.296Z,46.56
2022-09-02T12:57:40.291Z,45.59
2022-09-02T12:58:40.251Z,46.08
2022-09-02T12:59:40.232Z,45.21
2022-09-02T13:00:40.222Z,45.71
2022-09-02T13:01:40.404Z,46.31
2022-09-02T13:02:40.198Z,47.40
2022-09-02T13:03:40.191Z,47.60
2022-09-02T13:04:40.184Z,46.90
2022-09-02T13:05:40.161Z,46.88
2022-09-02T13:06:40.151Z,46.50
2022-09-02T13:07:40.164Z,46.31
2022-09-02T13:08:40.122Z,46.50
2022-09-02T13:09:40.508Z,45.51
2022-09-02T13:10:40.125Z,45.61
2022-09-02T13:11:40.434Z,44.71
2022-09-02T13:12:40.073Z,45.81
2022-09-02T13:13:40.081Z,47.00
2022-09-02T13:14:40.091Z,46.98
2022-09-02T13:15:40.077Z,46.48
2022-09-02T13:16:40.361Z,45.21
2022-09-02T13:17:40.382Z,45.71
2022-09-02T13:18:40.002Z,46.80
2022-09-02T13:19:40.000Z,46.20
2022-09-02T13:20:39.999Z,46.11
2022-09-02T13:21:40.433Z,45.79
2022-09-02T13:22:39.938Z,44.89